Terminal Aerodrome Forecast
Issued by NWS Los Angeles, CA

Home | Current Version | Previous Version | Text Only | Print | Product List | Glossary On
Versions: 1 2 3 4 5 6 7 8 9 10 11 12 13 14 15 16 17 18 19 20 21 22 23 24 25
000
FTUS46 KLOX 050900 AAA
TAFSMX
TAF AMD
KSMX 050901Z 0509/0606 VRB03KT P6SM OVC015
     FM051600 30006KT P6SM OVC020
     FM051800 31010KT P6SM BKN025
     FM052000 30015G22KT P6SM SCT030
     FM060300 30010KT P6SM SCT025
     FM060400 30008KT P6SM BKN020=

USA.gov is the U.S. government's official web portal to all federal, state and local government web resources and services.